< < Back
Terminal Aerodrome Forecast


Current Version              Previous Versions:   1  2  3  4  5  6  7  8  9  

Terminal Aerodrome Forecast

520
FTUS42 KMLB 300247 AAA
TAFMCO
TAF AMD
KMCO 300247Z 3003/3024 05004KT P6SM SKC
     FM301400 27006KT P6SM FEW050 SCT250=



Latest METAR

639
SAUS70 KWBC 300700 RRF
MTRMCO
METAR KMCO 300653Z 00000KT 10SM CLR 11/07 A3029 RMK AO2 SLP257
T01110067


USA.gov is the U.S. government's official web portal to all federal, state and local government web resources and services.